sensor_id;sensor_type;location;lat;lon;timestamp;pressure;altitude;pressure_sealevel;temperature;humidity
77587;BME280;66744;49.716;17.158;2024-03-23T00:54:24;98501.75;;;12.36;61.13
77587;BME280;66744;49.716;17.158;2024-03-23T00:57:25;98500.84;;;12.39;61.96
77587;BME280;66744;49.716;17.158;2024-03-23T01:00:26;98499.78;;;12.36;61.03
77587;BME280;66744;49.716;17.158;2024-03-23T01:03:27;98494.09;;;12.40;61.86
77587;BME280;66744;49.716;17.158;2024-03-23T01:06:28;98485.69;;;12.43;61.89
77587;BME280;66744;49.716;17.158;2024-03-23T01:09:29;98485.38;;;12.41;61.10
77587;BME280;66744;49.716;17.158;2024-03-23T01:12:30;98485.38;;;12.41;62.57
77587;BME280;66744;49.716;17.158;2024-03-23T01:15:31;98486.47;;;12.44;62.80
77587;BME280;66744;49.716;17.158;2024-03-23T01:18:33;98491.97;;;12.44;61.14
77587;BME280;66744;49.716;17.158;2024-03-23T01:21:34;98489.81;;;12.48;59.90
77587;BME280;66744;49.716;17.158;2024-03-23T01:24:35;98495.47;;;12.44;60.33
77587;BME280;66744;49.716;17.158;2024-03-23T01:27:36;98491.34;;;12.40;62.08
77587;BME280;66744;49.716;17.158;2024-03-23T01:30:37;98490.91;;;12.32;64.15
77587;BME280;66744;49.716;17.158;2024-03-23T01:33:39;98485.84;;;12.21;64.23
77587;BME280;66744;49.716;17.158;2024-03-23T01:36:40;98485.69;;;12.25;61.83
77587;BME280;66744;49.716;17.158;2024-03-23T01:39:41;98484.63;;;12.32;62.15
77587;BME280;66744;49.716;17.158;2024-03-23T01:42:43;98466.13;;;12.32;62.24
77587;BME280;66744;49.716;17.158;2024-03-23T01:45:55;98452.50;;;12.29;62.87
77587;BME280;66744;49.716;17.158;2024-03-23T01:48:56;98458.47;;;12.18;63.27
77587;BME280;66744;49.716;17.158;2024-03-23T01:51:57;98450.03;;;12.21;63.76
77587;BME280;66744;49.716;17.158;2024-03-23T01:55:00;98433.69;;;12.18;62.92
77587;BME280;66744;49.716;17.158;2024-03-23T01:58:01;98439.03;;;12.21;62.93
77587;BME280;66744;49.716;17.158;2024-03-23T02:04:53;98452.66;;;12.34;61.62
77587;BME280;66744;49.716;17.158;2024-03-23T02:07:54;98451.88;;;12.34;60.56
77587;BME280;66744;49.716;17.158;2024-03-23T02:10:55;98429.84;;;12.34;61.85
77587;BME280;66744;49.716;17.158;2024-03-23T02:13:56;98417.91;;;12.27;63.25
77587;BME280;66744;49.716;17.158;2024-03-23T02:16:59;98414.41;;;12.18;65.41
77587;BME280;66744;49.716;17.158;2024-03-23T02:20:01;98429.56;;;12.13;61.95
77587;BME280;66744;49.716;17.158;2024-03-23T02:23:04;98426.34;;;12.15;64.50
77587;BME280;66744;49.716;17.158;2024-03-23T02:26:08;98405.84;;;12.16;62.91
77587;BME280;66744;49.716;17.158;2024-03-23T02:29:09;98417.91;;;12.18;62.75
77587;BME280;66744;49.716;17.158;2024-03-23T02:32:11;98423.13;;;12.16;62.65
77587;BME280;66744;49.716;17.158;2024-03-23T02:35:12;98395.47;;;12.11;63.77
77587;BME280;66744;49.716;17.158;2024-03-23T02:38:14;98382.75;;;12.04;64.38
77587;BME280;66744;49.716;17.158;2024-03-23T02:41:15;98394.97;;;12.03;65.30
77587;BME280;66744;49.716;17.158;2024-03-23T02:44:22;98398.81;;;12.06;65.01
77587;BME280;66744;49.716;17.158;2024-03-23T02:47:23;98391.63;;;12.08;63.53
77587;BME280;66744;49.716;17.158;2024-03-23T02:50:24;98382.91;;;12.01;64.14
77587;BME280;66744;49.716;17.158;2024-03-23T02:53:25;98368.09;;;11.98;65.30
77587;BME280;66744;49.716;17.158;2024-03-23T02:56:26;98361.97;;;11.85;66.23
77587;BME280;66744;49.716;17.158;2024-03-23T02:59:27;98368.38;;;11.73;66.65
77587;BME280;66744;49.716;17.158;2024-03-23T03:02:29;98374.66;;;11.83;64.26
77587;BME280;66744;49.716;17.158;2024-03-23T03:05:30;98364.13;;;11.90;64.46
77587;BME280;66744;49.716;17.158;2024-03-23T03:08:31;98374.81;;;11.97;64.06
77587;BME280;66744;49.716;17.158;2024-03-23T03:11:32;98365.47;;;12.04;61.67
77587;BME280;66744;49.716;17.158;2024-03-23T03:14:34;98358.13;;;12.01;63.83
77587;BME280;66744;49.716;17.158;2024-03-23T03:17:35;98353.53;;;11.98;64.64
77587;BME280;66744;49.716;17.158;2024-03-23T03:20:39;98345.44;;;11.94;65.04
77587;BME280;66744;49.716;17.158;2024-03-23T03:23:41;98334.44;;;11.94;64.68
77587;BME280;66744;49.716;17.158;2024-03-23T03:26:42;98333.69;;;11.85;64.90
77587;BME280;66744;49.716;17.158;2024-03-23T03:29:43;98342.09;;;11.90;63.49
77587;BME280;66744;49.716;17.158;2024-03-23T03:32:44;98338.25;;;11.97;63.47
77587;BME280;66744;49.716;17.158;2024-03-23T03:35:45;98330.00;;;11.97;63.83
77587;BME280;66744;49.716;17.158;2024-03-23T03:38:46;98328.63;;;12.01;64.15
77587;BME280;66744;49.716;17.158;2024-03-23T03:41:48;98327.25;;;11.97;64.14
77587;BME280;66744;49.716;17.158;2024-03-23T03:44:50;98327.25;;;11.97;63.57
77587;BME280;66744;49.716;17.158;2024-03-23T03:47:51;98318.53;;;11.98;63.35
77587;BME280;66744;49.716;17.158;2024-03-23T03:50:52;98313.31;;;12.00;63.79
77587;BME280;66744;49.716;17.158;2024-03-23T03:53:54;98309.34;;;12.01;62.98
77587;BME280;66744;49.716;17.158;2024-03-23T03:56:55;98307.22;;;11.96;63.92
77587;BME280;66744;49.716;17.158;2024-03-23T03:59:56;98297.59;;;11.92;63.23
77587;BME280;66744;49.716;17.158;2024-03-23T04:02:57;98300.34;;;11.92;62.41
77587;BME280;66744;49.716;17.158;2024-03-23T04:05:58;98303.72;;;11.96;61.55
77587;BME280;66744;49.716;17.158;2024-03-23T04:09:00;98297.88;;;11.94;62.49
77587;BME280;66744;49.716;17.158;2024-03-23T04:12:01;98301.25;;;11.89;63.53
77587;BME280;66744;49.716;17.158;2024-03-23T04:15:03;98295.31;;;11.90;62.40
77587;BME280;66744;49.716;17.158;2024-03-23T04:18:06;98293.28;;;11.91;62.47
77587;BME280;66744;49.716;17.158;2024-03-23T04:21:07;98287.97;;;11.87;64.36
77587;BME280;66744;49.716;17.158;2024-03-23T04:24:08;98290.53;;;11.91;62.54
77587;BME280;66744;49.716;17.158;2024-03-23T04:27:09;98291.31;;;11.91;62.47
77587;BME280;66744;49.716;17.158;2024-03-23T04:30:11;98284.44;;;11.87;62.31
77587;BME280;66744;49.716;17.158;2024-03-23T04:33:12;98284.31;;;11.81;63.09
77587;BME280;66744;49.716;17.158;2024-03-23T04:36:13;98288.00;;;11.78;63.96
77587;BME280;66744;49.716;17.158;2024-03-23T04:39:15;98285.53;;;11.71;65.55
77587;BME280;66744;49.716;17.158;2024-03-23T04:42:16;98282.03;;;11.70;65.89
77587;BME280;66744;49.716;17.158;2024-03-23T04:45:18;98264.75;;;11.70;65.83
77587;BME280;66744;49.716;17.158;2024-03-23T04:48:22;98266.56;;;11.73;62.76
77587;BME280;66744;49.716;17.158;2024-03-23T04:51:24;98263.66;;;11.77;63.65
77587;BME280;66744;49.716;17.158;2024-03-23T04:54:25;98259.41;;;11.76;62.79
77587;BME280;66744;49.716;17.158;2024-03-23T04:57:26;98267.34;;;11.74;64.23
77587;BME280;66744;49.716;17.158;2024-03-23T05:00:29;98262.31;;;11.72;62.65
77587;BME280;66744;49.716;17.158;2024-03-23T05:03:30;98254.19;;;11.68;65.22
77587;BME280;66744;49.716;17.158;2024-03-23T05:06:31;98265.97;;;11.69;64.25
77587;BME280;66744;49.716;17.158;2024-03-23T05:09:32;98257.56;;;11.73;62.09
77587;BME280;66744;49.716;17.158;2024-03-23T05:12:34;98258.31;;;11.73;63.84
77587;BME280;66744;49.716;17.158;2024-03-23T05:15:35;98263.81;;;11.73;64.29
77587;BME280;66744;49.716;17.158;2024-03-23T05:18:36;98263.38;;;11.75;62.27
77587;BME280;66744;49.716;17.158;2024-03-23T05:21:37;98252.38;;;11.75;64.02
77587;BME280;66744;49.716;17.158;2024-03-23T05:24:38;98252.53;;;11.71;63.06
77587;BME280;66744;49.716;17.158;2024-03-23T05:27:39;98242.41;;;11.68;61.83
77587;BME280;66744;49.716;17.158;2024-03-23T05:30:40;98241.22;;;11.60;65.98
77587;BME280;66744;49.716;17.158;2024-03-23T05:33:41;98229.91;;;11.58;66.32
77587;BME280;66744;49.716;17.158;2024-03-23T05:36:43;98233.25;;;11.62;64.51
77587;BME280;66744;49.716;17.158;2024-03-23T05:39:44;98238.59;;;11.65;64.71
77587;BME280;66744;49.716;17.158;2024-03-23T05:42:45;98227.00;;;11.70;64.23
77587;BME280;66744;49.716;17.158;2024-03-23T05:45:53;98227.31;;;11.73;65.26
77587;BME280;66744;49.716;17.158;2024-03-23T05:49:00;98214.28;;;11.73;65.48
77587;BME280;66744;49.716;17.158;2024-03-23T05:52:03;98221.34;;;11.74;64.03
77587;BME280;66744;49.716;17.158;2024-03-23T05:55:05;98221.94;;;11.78;62.50
77587;BME280;66744;49.716;17.158;2024-03-23T05:58:07;98215.97;;;11.70;67.30
77587;BME280;66744;49.716;17.158;2024-03-23T06:01:08;98220.72;;;11.61;65.22
77587;BME280;66744;49.716;17.158;2024-03-23T06:04:10;98228.22;;;11.60;67.50
77587;BME280;66744;49.716;17.158;2024-03-23T06:07:12;98222.56;;;11.55;67.44
77587;BME280;66744;49.716;17.158;2024-03-23T06:10:15;98236.91;;;11.59;66.55
77587;BME280;66744;49.716;17.158;2024-03-23T06:13:16;98236.47;;;11.60;66.39
77587;BME280;66744;49.716;17.158;2024-03-23T06:16:17;98238.75;;;11.71;64.38
77587;BME280;66744;49.716;17.158;2024-03-23T06:19:24;98227.44;;;11.78;66.34
77587;BME280;66744;49.716;17.158;2024-03-23T06:22:28;98229.56;;;11.83;63.74
77587;BME280;66744;49.716;17.158;2024-03-23T06:25:29;98223.75;;;11.90;65.48
77587;BME280;66744;49.716;17.158;2024-03-23T06:28:30;98212.75;;;11.90;65.06
77587;BME280;66744;49.716;17.158;2024-03-23T06:31:31;98222.97;;;11.90;67.55
77587;BME280;66744;49.716;17.158;2024-03-23T06:34:33;98217.31;;;11.93;69.02
77587;BME280;66744;49.716;17.158;2024-03-23T06:37:37;98219.06;;;12.14;66.07
77587;BME280;66744;49.716;17.158;2024-03-23T06:40:39;98212.56;;;12.26;67.05
77587;BME280;66744;49.716;17.158;2024-03-23T06:43:40;98211.19;;;12.31;66.86
77587;BME280;66744;49.716;17.158;2024-03-23T06:46:42;98217.59;;;12.37;66.34
77587;BME280;66744;49.716;17.158;2024-03-23T06:49:43;98212.09;;;12.37;64.70
77587;BME280;66744;49.716;17.158;2024-03-23T06:52:44;98208.03;;;12.47;61.91
77587;BME280;66744;49.716;17.158;2024-03-23T06:55:50;98212.63;;;12.50;63.59
77587;BME280;66744;49.716;17.158;2024-03-23T06:58:52;98196.41;;;12.76;62.49
77587;BME280;66744;49.716;17.158;2024-03-23T07:01:53;98194.63;;;13.11;61.67
77587;BME280;66744;49.716;17.158;2024-03-23T07:04:54;98183.66;;;13.41;61.15
77587;BME280;66744;49.716;17.158;2024-03-23T07:07:55;98188.50;;;13.75;61.21
77587;BME280;66744;49.716;17.158;2024-03-23T07:10:57;98181.53;;;13.94;58.82
77587;BME280;66744;49.716;17.158;2024-03-23T07:13:59;98188.69;;;13.86;58.31
77587;BME280;66744;49.716;17.158;2024-03-23T07:17:01;98179.56;;;13.80;58.66
77587;BME280;66744;49.716;17.158;2024-03-23T07:20:02;98186.69;;;13.72;58.48
77587;BME280;66744;49.716;17.158;2024-03-23T07:23:05;98179.47;;;13.74;59.17
77587;BME280;66744;49.716;17.158;2024-03-23T07:26:06;98178.91;;;13.70;59.79
77587;BME280;66744;49.716;17.158;2024-03-23T07:29:09;98166.22;;;13.78;59.59
77587;BME280;66744;49.716;17.158;2024-03-23T07:32:12;98146.25;;;13.83;59.90
77587;BME280;66744;49.716;17.158;2024-03-23T07:35:13;98134.53;;;13.74;59.85
77587;BME280;66744;49.716;17.158;2024-03-23T07:38:15;98139.13;;;13.62;59.61
77587;BME280;66744;49.716;17.158;2024-03-23T07:41:20;98114.47;;;13.59;59.68
77587;BME280;66744;49.716;17.158;2024-03-23T07:44:21;98104.66;;;13.72;59.38
77587;BME280;66744;49.716;17.158;2024-03-23T07:47:23;98103.16;;;14.06;58.46
77587;BME280;66744;49.716;17.158;2024-03-23T07:50:24;98105.16;;;14.26;56.94
77587;BME280;66744;49.716;17.158;2024-03-23T07:53:25;98085.44;;;14.53;55.50
77587;BME280;66744;49.716;17.158;2024-03-23T07:56:27;98092.63;;;14.65;54.86
77587;BME280;66744;49.716;17.158;2024-03-23T07:59:28;98085.50;;;14.79;56.12
77587;BME280;66744;49.716;17.158;2024-03-23T08:02:32;98075.34;;;14.90;55.31
77587;BME280;66744;49.716;17.158;2024-03-23T08:05:34;98070.38;;;15.00;55.83
77587;BME280;66744;49.716;17.158;2024-03-23T08:08:37;98069.47;;;14.83;55.35
77587;BME280;66744;49.716;17.158;2024-03-23T08:11:42;98049.88;;;14.61;57.64
77587;BME280;66744;49.716;17.158;2024-03-23T08:14:46;98046.66;;;14.68;57.34
77587;BME280;66744;49.716;17.158;2024-03-23T08:17:47;98028.69;;;14.78;56.70
77587;BME280;66744;49.716;17.158;2024-03-23T08:21:05;98021.09;;;14.98;56.00
77587;BME280;66744;49.716;17.158;2024-03-23T08:24:07;98008.72;;;15.20;54.60
77587;BME280;66744;49.716;17.158;2024-03-23T08:27:08;98000.41;;;15.20;55.89
77587;BME280;66744;49.716;17.158;2024-03-23T08:30:10;97978.00;;;15.18;55.27
77587;BME280;66744;49.716;17.158;2024-03-23T08:33:14;97956.19;;;15.25;55.81
77587;BME280;66744;49.716;17.158;2024-03-23T08:36:18;97950.13;;;15.27;55.28
77587;BME280;66744;49.716;17.158;2024-03-23T08:39:19;97955.25;;;15.39;55.48
77587;BME280;66744;49.716;17.158;2024-03-23T08:42:21;97950.34;;;15.54;55.21
77587;BME280;66744;49.716;17.158;2024-03-23T08:45:22;97951.09;;;15.49;54.44
77587;BME280;66744;49.716;17.158;2024-03-23T08:48:23;97969.56;;;15.69;53.15
77587;BME280;66744;49.716;17.158;2024-03-23T08:51:24;97970.97;;;15.96;53.16
77587;BME280;66744;49.716;17.158;2024-03-23T08:54:25;97964.69;;;16.06;52.70
77587;BME280;66744;49.716;17.158;2024-03-23T08:57:28;97959.44;;;16.14;52.48
77587;BME280;66744;49.716;17.158;2024-03-23T09:00:30;97948.19;;;16.45;51.87
77587;BME280;66744;49.716;17.158;2024-03-23T09:03:31;97949.28;;;16.64;52.36
77587;BME280;66744;49.716;17.158;2024-03-23T09:06:32;97935.91;;;16.57;52.08
77587;BME280;66744;49.716;17.158;2024-03-23T09:09:33;97936.63;;;16.47;51.52
77587;BME280;66744;49.716;17.158;2024-03-23T09:12:35;97932.75;;;16.22;52.19
77587;BME280;66744;49.716;17.158;2024-03-23T09:19:05;97911.34;;;16.23;52.24
77587;BME280;66744;49.716;17.158;2024-03-23T09:22:06;97917.91;;;16.31;51.67
77587;BME280;66744;49.716;17.158;2024-03-23T09:25:10;97908.84;;;16.25;52.70
77587;BME280;66744;49.716;17.158;2024-03-23T09:28:32;97892.19;;;16.13;52.40
77587;BME280;66744;49.716;17.158;2024-03-23T09:31:33;97867.78;;;16.23;52.62
77587;BME280;66744;49.716;17.158;2024-03-23T09:34:35;97853.69;;;16.32;51.50
77587;BME280;66744;49.716;17.158;2024-03-23T09:37:42;97831.03;;;16.61;51.44
77587;BME280;66744;49.716;17.158;2024-03-23T09:40:43;97823.47;;;16.62;51.22
77587;BME280;66744;49.716;17.158;2024-03-23T09:43:48;97816.88;;;16.93;51.62
77587;BME280;66744;49.716;17.158;2024-03-23T09:46:52;97819.13;;;17.05;49.54
77587;BME280;66744;49.716;17.158;2024-03-23T09:49:57;97816.84;;;17.15;49.89
77587;BME280;66744;49.716;17.158;2024-03-23T09:53:10;97813.25;;;17.31;51.25
77587;BME280;66744;49.716;17.158;2024-03-23T09:56:17;97807.88;;;17.50;50.54
77587;BME280;66744;49.716;17.158;2024-03-23T09:59:19;97796.50;;;17.59;48.85
77587;BME280;66744;49.716;17.158;2024-03-23T10:02:27;97786.13;;;17.65;48.40
77587;BME280;66744;49.716;17.158;2024-03-23T10:05:29;97782.34;;;17.62;48.78
77587;BME280;66744;49.716;17.158;2024-03-23T10:08:37;97772.53;;;17.50;49.28
77587;BME280;66744;49.716;17.158;2024-03-23T10:11:39;97751.84;;;17.57;48.45
77587;BME280;66744;49.716;17.158;2024-03-23T10:14:48;97740.69;;;17.62;49.45
77587;BME280;66744;49.716;17.158;2024-03-23T10:17:49;97729.56;;;17.68;49.05
77587;BME280;66744;49.716;17.158;2024-03-23T10:21:07;97742.78;;;17.92;49.86
77587;BME280;66744;49.716;17.158;2024-03-23T10:24:10;97721.34;;;18.22;46.76
77587;BME280;66744;49.716;17.158;2024-03-23T10:27:19;97718.03;;;18.53;46.31
77587;BME280;66744;49.716;17.158;2024-03-23T10:30:21;97716.84;;;18.73;45.96
77587;BME280;66744;49.716;17.158;2024-03-23T10:33:28;97684.78;;;18.66;46.17
77587;BME280;66744;49.716;17.158;2024-03-23T10:36:31;97686.47;;;18.45;46.84
77587;BME280;66744;49.716;17.158;2024-03-23T10:42:37;97667.94;;;18.77;44.89
77587;BME280;66744;49.716;17.158;2024-03-23T10:45:50;97652.28;;;18.99;43.96
77587;BME280;66744;49.716;17.158;2024-03-23T10:49:03;97653.47;;;19.22;44.97
77587;BME280;66744;49.716;17.158;2024-03-23T10:52:16;97639.94;;;19.31;44.00
77587;BME280;66744;49.716;17.158;2024-03-23T10:55:19;97623.16;;;19.18;44.34
77587;BME280;66744;49.716;17.158;2024-03-23T10:58:42;97621.72;;;19.30;43.82
77587;BME280;66744;49.716;17.158;2024-03-23T11:02:02;97623.69;;;19.35;42.76
77587;BME280;66744;49.716;17.158;2024-03-23T11:08:40;97627.75;;;19.53;43.43
77587;BME280;66744;49.716;17.158;2024-03-23T11:11:53;97615.94;;;19.47;43.29
77587;BME280;66744;49.716;17.158;2024-03-23T11:15:04;97615.97;;;19.60;42.95
77587;BME280;66744;49.716;17.158;2024-03-23T11:18:22;97625.84;;;19.61;44.14
77587;BME280;66744;49.716;17.158;2024-03-23T11:21:54;97634.88;;;19.67;42.08
77587;BME280;66744;49.716;17.158;2024-03-23T11:28:22;97605.28;;;19.64;44.34
77587;BME280;66744;49.716;17.158;2024-03-23T11:31:26;97580.66;;;19.68;43.66
77587;BME280;66744;49.716;17.158;2024-03-23T11:34:48;97584.44;;;19.84;42.57
77587;BME280;66744;49.716;17.158;2024-03-23T11:38:01;97578.84;;;19.71;42.85
77587;BME280;66744;49.716;17.158;2024-03-23T11:41:05;97572.84;;;19.80;41.75
77587;BME280;66744;49.716;17.158;2024-03-23T11:44:17;97566.88;;;19.89;42.23
77587;BME280;66744;49.716;17.158;2024-03-23T11:47:19;97568.44;;;19.71;41.56
77587;BME280;66744;49.716;17.158;2024-03-23T11:50:20;97571.75;;;19.70;42.19
77587;BME280;66744;49.716;17.158;2024-03-23T11:53:25;97582.03;;;19.62;41.88
77587;BME280;66744;49.716;17.158;2024-03-23T11:56:30;97588.66;;;19.59;41.86
77587;BME280;66744;49.716;17.158;2024-03-23T11:59:36;97598.06;;;19.56;44.24
77587;BME280;66744;49.716;17.158;2024-03-23T12:02:49;97602.69;;;19.53;44.52
77587;BME280;66744;49.716;17.158;2024-03-23T12:05:53;97588.00;;;19.53;45.70
77587;BME280;66744;49.716;17.158;2024-03-23T12:09:08;97615.41;;;19.30;48.17
77587;BME280;66744;49.716;17.158;2024-03-23T12:12:18;97635.78;;;19.19;48.59
77587;BME280;66744;49.716;17.158;2024-03-23T12:15:19;97757.28;;;18.98;48.59
77587;BME280;66744;49.716;17.158;2024-03-23T12:18:32;97782.31;;;18.50;51.36
77587;BME280;66744;49.716;17.158;2024-03-23T12:21:37;97825.53;;;17.63;53.98
77587;BME280;66744;49.716;17.158;2024-03-23T12:24:38;97863.00;;;17.18;55.69
77587;BME280;66744;49.716;17.158;2024-03-23T12:27:46;97834.53;;;16.90;56.39
77587;BME280;66744;49.716;17.158;2024-03-23T12:30:51;97829.03;;;16.67;55.07
77587;BME280;66744;49.716;17.158;2024-03-23T12:33:59;97817.91;;;16.34;56.28
77587;BME280;66744;49.716;17.158;2024-03-23T12:37:01;97792.91;;;16.01;56.49
77587;BME280;66744;49.716;17.158;2024-03-23T12:40:02;97797.69;;;15.95;56.78
77587;BME280;66744;49.716;17.158;2024-03-23T12:43:07;97814.53;;;15.86;56.67
77587;BME280;66744;49.716;17.158;2024-03-23T12:46:17;97805.69;;;15.65;58.06
77587;BME280;66744;49.716;17.158;2024-03-23T12:49:18;97824.59;;;15.72;58.40
77587;BME280;66744;49.716;17.158;2024-03-23T12:52:22;97811.97;;;15.66;57.69
77587;BME280;66744;49.716;17.158;2024-03-23T12:55:25;97809.41;;;15.51;58.60
77587;BME280;66744;49.716;17.158;2024-03-23T12:58:34;97836.75;;;15.38;59.72
77587;BME280;66744;49.716;17.158;2024-03-23T13:01:51;97834.72;;;15.38;60.17
77587;BME280;66744;49.716;17.158;2024-03-23T13:04:59;97825.19;;;15.39;59.50
77587;BME280;66744;49.716;17.158;2024-03-23T13:08:00;97837.78;;;15.40;59.52
77587;BME280;66744;49.716;17.158;2024-03-23T13:11:22;97824.53;;;15.50;59.50
77587;BME280;66744;49.716;17.158;2024-03-23T13:14:23;97835.63;;;15.55;59.44
77587;BME280;66744;49.716;17.158;2024-03-23T13:17:36;97812.88;;;15.46;58.81
77587;BME280;66744;49.716;17.158;2024-03-23T13:21:36;97815.56;;;15.29;60.35
77587;BME280;66744;49.716;17.158;2024-03-23T13:24:48;97821.63;;;15.33;60.52
77587;BME280;66744;49.716;17.158;2024-03-23T13:27:53;97802.44;;;15.13;61.56
77587;BME280;66744;49.716;17.158;2024-03-23T13:31:00;97820.81;;;15.22;61.28
77587;BME280;66744;49.716;17.158;2024-03-23T13:34:09;97808.72;;;15.14;61.38
77587;BME280;66744;49.716;17.158;2024-03-23T13:37:22;97808.25;;;15.26;60.60
77587;BME280;66744;49.716;17.158;2024-03-23T13:40:35;97822.66;;;15.36;60.71
77587;BME280;66744;49.716;17.158;2024-03-23T13:44:06;97831.47;;;15.34;60.56
77587;BME280;66744;49.716;17.158;2024-03-23T13:47:51;97821.88;;;15.35;59.66
77587;BME280;66744;49.716;17.158;2024-03-23T13:51:48;97819.66;;;15.45;60.20
77587;BME280;66744;49.716;17.158;2024-03-23T13:55:33;97825.19;;;15.45;59.07
77587;BME280;66744;49.716;17.158;2024-03-23T13:58:39;97814.84;;;15.34;57.82
77587;BME280;66744;49.716;17.158;2024-03-23T14:11:54;97772.69;;;15.02;58.11
77587;BME280;66744;49.716;17.158;2024-03-23T14:15:08;97797.63;;;15.08;58.79
77587;BME280;66744;49.716;17.158;2024-03-23T14:18:17;97776.28;;;15.14;57.66
77587;BME280;66744;49.716;17.158;2024-03-23T14:21:34;97783.13;;;15.30;57.09
77587;BME280;66744;49.716;17.158;2024-03-23T14:24:57;97768.22;;;15.11;56.39
77587;BME280;66744;49.716;17.158;2024-03-23T14:28:35;97740.56;;;15.11;57.06
77587;BME280;66744;49.716;17.158;2024-03-23T14:32:29;97713.09;;;14.96;57.72
77587;BME280;66744;49.716;17.158;2024-03-23T14:36:08;97683.53;;;14.71;58.38
77587;BME280;66744;49.716;17.158;2024-03-23T14:39:35;97694.09;;;14.67;58.02
77587;BME280;66744;49.716;17.158;2024-03-23T14:43:01;97704.66;;;14.68;57.99
77587;BME280;66744;49.716;17.158;2024-03-23T14:46:25;97715.16;;;14.64;57.60
77587;BME280;66744;49.716;17.158;2024-03-23T14:50:07;97724.72;;;14.63;56.85
77587;BME280;66744;49.716;17.158;2024-03-23T14:54:24;97744.59;;;14.67;57.23
77587;BME280;66744;49.716;17.158;2024-03-23T15:02:01;97787.97;;;14.56;57.81
77587;BME280;66744;49.716;17.158;2024-03-23T15:05:19;97781.94;;;14.26;56.29
77587;BME280;66744;49.716;17.158;2024-03-23T15:09:42;97794.16;;;13.88;56.47
77587;BME280;66744;49.716;17.158;2024-03-23T15:13:26;97820.56;;;13.69;56.88
77587;BME280;66744;49.716;17.158;2024-03-23T15:26:29;97923.50;;;13.55;56.98
77587;BME280;66744;49.716;17.158;2024-03-23T15:29:58;97918.03;;;13.40;56.88
77587;BME280;66744;49.716;17.158;2024-03-23T15:37:02;97935.63;;;13.43;57.42
77587;BME280;66744;49.716;17.158;2024-03-23T15:50:54;98035.16;;;13.10;55.88
77587;BME280;66744;49.716;17.158;2024-03-23T15:54:36;98085.59;;;13.01;54.46
77587;BME280;66744;49.716;17.158;2024-03-23T15:57:46;98090.84;;;12.99;56.33
77587;BME280;66744;49.716;17.158;2024-03-23T16:04:47;98101.34;;;13.24;54.72
77587;BME280;66744;49.716;17.158;2024-03-23T16:08:23;98106.34;;;12.97;53.73
77587;BME280;66744;49.716;17.158;2024-03-23T16:12:10;98133.00;;;12.76;52.94
77587;BME280;66744;49.716;17.158;2024-03-23T16:15:20;98143.81;;;12.65;53.11
77587;BME280;66744;49.716;17.158;2024-03-23T16:22:29;98133.44;;;12.60;52.75
77587;BME280;66744;49.716;17.158;2024-03-23T16:26:04;98147.81;;;12.40;50.27
77587;BME280;66744;49.716;17.158;2024-03-23T16:29:49;98157.00;;;12.37;52.30
77587;BME280;66744;49.716;17.158;2024-03-23T16:37:54;98184.63;;;12.19;52.36
77587;BME280;66744;49.716;17.158;2024-03-23T16:41:09;98196.88;;;12.18;51.65
77587;BME280;66744;49.716;17.158;2024-03-23T16:44:26;98204.22;;;12.12;51.49
77587;BME280;66744;49.716;17.158;2024-03-23T16:47:29;98226.53;;;12.23;52.43
77587;BME280;66744;49.716;17.158;2024-03-23T16:50:41;98237.47;;;12.08;50.91
77587;BME280;66744;49.716;17.158;2024-03-23T16:54:28;98232.91;;;11.96;53.33
77587;BME280;66744;49.716;17.158;2024-03-23T17:01:56;98230.94;;;11.88;54.04
77587;BME280;66744;49.716;17.158;2024-03-23T17:13:57;98247.16;;;11.58;52.92
77587;BME280;66744;49.716;17.158;2024-03-23T17:17:24;98240.44;;;11.59;52.78
77587;BME280;66744;49.716;17.158;2024-03-23T17:20:28;98247.34;;;11.55;52.17
77587;BME280;66744;49.716;17.158;2024-03-23T17:23:43;98260.44;;;11.69;52.53
77587;BME280;66744;49.716;17.158;2024-03-23T17:27:27;98252.06;;;11.54;53.92
77587;BME280;66744;49.716;17.158;2024-03-23T17:30:54;98249.63;;;11.38;52.96
77587;BME280;66744;49.716;17.158;2024-03-23T17:38:12;98264.75;;;11.34;51.73
77587;BME280;66744;49.716;17.158;2024-03-23T17:41:15;98255.88;;;11.39;54.78
77587;BME280;66744;49.716;17.158;2024-03-23T17:44:46;98274.66;;;11.40;54.19
77587;BME280;66744;49.716;17.158;2024-03-23T17:48:43;98265.06;;;11.36;52.86
77587;BME280;66744;49.716;17.158;2024-03-23T17:52:15;98261.25;;;11.33;51.44
77587;BME280;66744;49.716;17.158;2024-03-23T17:55:30;98254.34;;;11.20;53.25
77587;BME280;66744;49.716;17.158;2024-03-23T17:59:03;98268.41;;;11.22;53.76
77587;BME280;66744;49.716;17.158;2024-03-23T18:02:30;98264.59;;;11.19;55.20
77587;BME280;66744;49.716;17.158;2024-03-23T18:05:38;98258.94;;;11.13;53.59
77587;BME280;66744;49.716;17.158;2024-03-23T18:09:00;98249.59;;;11.02;53.08
77587;BME280;66744;49.716;17.158;2024-03-23T18:16:58;98225.59;;;10.75;55.84
77587;BME280;66744;49.716;17.158;2024-03-23T18:20:29;98241.81;;;10.91;52.56
77587;BME280;66744;49.716;17.158;2024-03-23T18:23:30;98248.66;;;10.87;54.07
77587;BME280;66744;49.716;17.158;2024-03-23T18:26:42;98257.06;;;10.83;54.70
77587;BME280;66744;49.716;17.158;2024-03-23T18:29:59;98283.06;;;11.00;55.47
77587;BME280;66744;49.716;17.158;2024-03-23T18:33:54;98287.00;;;10.90;52.84
77587;BME280;66744;49.716;17.158;2024-03-23T18:42:40;98277.06;;;10.75;54.55
77587;BME280;66744;49.716;17.158;2024-03-23T18:45:53;98256.38;;;10.52;54.64
77587;BME280;66744;49.716;17.158;2024-03-23T18:48:58;98250.41;;;10.44;56.25
77587;BME280;66744;49.716;17.158;2024-03-23T18:52:06;98274.22;;;10.47;56.21
77587;BME280;66744;49.716;17.158;2024-03-23T18:55:11;98266.59;;;10.51;56.05